Details From ENBR - Bergen Lufthavn Flesland
To ENLK - Leknes
Flight Number -
Tags generated
Created
Modified
Stats Distance 530 nm / 981 km
Max Altitude 35,000 ft / 10,668 m
Waypoints 6
Social Downloads 1
Likes 0
Share VATSIM

Download

Looking for another format? Having issues loading an existing format? Contact us
Advertisement - Login to hide

Notes

Basic altitude profile: - Ascent Rate: 2500ft/min - Ascent Speed: 250kts - Cruise Altitude: 35000ft - Cruise Speed: 420kts - Descent Rate: 1500ft/min - Descent Speed: 250kts Options: - Use NATs: yes - Use PACOTS: yes - Use low airways: yes - Use high airways: yes

Route

ENBR TINKO UZ107 STO UZ202 STT ENLK

ID Type Via Altitude Latitude Longitude Leg Dist Tot Dist Heading (true) Name
O ENBR APT - 0 ft / 0 m 60.29339˚ 5.21814˚ - 0 nm - Bergen Lufthavn Flesland
TINKO FIX - 35,000 ft / 10,668 m 61.92561˚ 6.63577˚ 106 nm 106 nm 22° / 23° -
KVB VOR UZ107 (AWY-HI) 35,000 ft / 10,668 m 63.11813˚ 7.81054˚ 78 nm 184 nm 24° / 25° KVERNBERGET VOR-DME
STO VOR UZ107 (AWY-HI) 29,100 ft / 8,870 m 65.96042˚ 12.46945˚ 208 nm 393 nm 33° / 37° STOKKA VOR-DME
STT NDB UZ202 (AWY-HI) 23,500 ft / 7,163 m 66.92703˚ 13.43858˚ 62 nm 456 nm 21° / 22° STOTT NDB
O ENLK APT - 0 ft / 0 m 68.15261˚ 13.60951˚ 73 nm 529 nm 3° / 3° Leknes

Altitude Profile

Advertisement - Login to hide

Weather


0- 5 10 15 20 25 30 35+ Temperature / ° C

Clouds and Precipitation
Forecast for 2017-12-16 12:00 UTC. Updated 2 hours ago

Ground ~20,000 ft ~40,000 ft Winds

ENBR

Details ICAO ENBR (BGO)
Name Bergen Lufthavn Flesland
Region Norway
Timezone Europe/Oslo (UTC+1.0)
Stats Elevation 165 ft / 50 m (AMSL)
Location 60.293388° 5.218140°
Runways 1
Magnetic Variation 0.841° E

METAR

ENBR 161250Z 05003KT 010V080 9999 FEW015CB M02/M05 Q1006 NOSIG RMK WIND 1200FT 36009KT

Decode

TAF

TAF ENBR 161100Z 1612/1712 01007KT 9999 FEW015 SCT050 TEMPO 1612/1618 FEW015CB BECMG 1706/1708 14010KT PROB30 TEMPO 1708/1712 2000 SHSN VV010

Decode

Departure Runways

ID Width Length Bearing (true) Bearing (mag) Surface Threshold Offset Overrun Length
17 148 ft / 45 m 9,793 ft / 2,985 m 170.56° 169.72° Asphalt 886 ft / 270 m 0 ft / 0 m
35 148 ft / 45 m 9,793 ft / 2,985 m 350.57° 349.73° Asphalt 886 ft / 270 m 0 ft / 0 m

ENLK

Details ICAO ENLK (LKN)
Name Leknes
Region Norway
Timezone Europe/Oslo (UTC+1.0)
Stats Elevation 78 ft / 24 m (AMSL)
Location 68.152613° 13.609505°
Runways 1
Magnetic Variation 5.431° E

METAR

ENLK 161250Z 35003KT 9999 -SHSN FEW002 SCT008 BKN010 01/00 Q0996

Decode

TAF

Not found

Destination Runways

ID Width Length Bearing (true) Bearing (mag) Surface Threshold Offset Overrun Length
03 98 ft / 30 m 2,876 ft / 877 m 27.57° 22.14° Asphalt 125 ft / 38 m 0 ft / 0 m
21 98 ft / 30 m 2,876 ft / 877 m 207.58° 202.15° Asphalt 131 ft / 40 m 0 ft / 0 m

Popular Alternatives